Аэропорт: Черновцы. Черновцы

ICAO: UKLN

METAR:
Информация по данной станции не доступна
METAR:
2021-07-28 08:03:00
TAF UKLN 280803Z 2809/2818 VRB01MPS 9999 SCT040 TX32/2812Z TN21/2818Z TEMPO 2812/2818 11005MPS 3000 -SHRA BKN020CB